Long Lake, Indiana
Current Conditions -  °F | °C
As of 5:35 PM on Saturday 20 Dec 2014 (Local Time) from KANQ Reporting Station
Overcast Overcast  
Wind Chill: 25°   Ceiling: 3100
Heat Index: 30°   Visibility: 10mi
Dew Point: 25°   Wind: 5mph
Humidity: 80%   Direction: 290°WNW
Pressure: 30.25"   Gusts: NA
Location:  41.7284°N, 84.9169°W
Report Text: KANQ 202235Z AUTO 29004KT 10SM OVC031 M01/M04 A3025 RMK
Loading
Personal Weather Stations






























Interactive Weather Map New forecast layout! Learn more

10-Day Weather Forecast

Advertisements
Track Severe Weather on mobile